Time;durP1;ratioP1;P1;durP2;ratioP2;P2;SDS_P1;SDS_P2;PMS_P1;PMS_P2;Temp;Humidity;BMP_temperature;BMP_pressure;BME280_temperature;BME280_humidity;BME280_pressure;Samples;Min_cycle;Max_cycle;Signal;HPM_P1;HPM_P2
2022/05/28 00:00:18;;;;;;;15.80;3.00;;;9.10;61.50;;;;;;5047737;28;20440;-82
2022/05/28 00:02:48;;;;;;;4.63;1.77;;;9.10;61.20;;;;;;5049120;28;20432;-81
2022/05/28 00:05:15;;;;;;;5.00;1.70;;;9.20;61.20;;;;;;5048799;28;20460;-82
2022/05/28 00:07:42;;;;;;;9.03;2.07;;;9.20;61.20;;;;;;5048028;28;20452;-81
2022/05/28 00:10:11;;;;;;;7.87;2.33;;;9.20;59.50;;;;;;5046207;28;20464;-81
2022/05/28 00:12:38;;;;;;;11.80;3.00;;;9.40;59.30;;;;;;5056414;28;20449;-82
2022/05/28 00:15:06;;;;;;;8.43;2.80;;;9.30;60.80;;;;;;5051542;28;20455;-82
2022/05/28 00:17:33;;;;;;;11.73;2.73;;;9.30;61.30;;;;;;5051286;28;20448;-82
2022/05/28 00:20:02;;;;;;;8.70;2.30;;;9.50;60.30;;;;;;5049753;28;20444;-82
2022/05/28 00:22:28;;;;;;;7.97;2.10;;;9.40;59.60;;;;;;5055838;28;20451;-81
2022/05/28 00:24:56;;;;;;;7.10;2.00;;;9.40;59.40;;;;;;5070155;28;20455;-81
2022/05/28 00:27:22;;;;;;;11.53;2.53;;;9.50;58.90;;;;;;5031351;28;20453;-82
2022/05/28 00:29:49;;;;;;;6.73;2.20;;;9.50;59.00;;;;;;5030156;28;20480;-82
2022/05/28 00:32:16;;;;;;;7.00;2.30;;;9.50;59.70;;;;;;5065533;28;20944;-82
2022/05/28 00:34:42;;;;;;;11.40;2.47;;;9.60;58.20;;;;;;5049817;28;20448;-80
2022/05/28 00:37:10;;;;;;;5.40;1.90;;;9.70;59.00;;;;;;5065689;28;20471;-82
2022/05/28 00:39:37;;;;;;;12.37;1.80;;;9.70;58.80;;;;;;5068155;28;20451;-82
2022/05/28 00:42:04;;;;;;;15.73;2.53;;;9.80;58.50;;;;;;5070035;28;20447;-82
2022/05/28 00:44:31;;;;;;;11.30;2.00;;;9.70;58.70;;;;;;5070335;28;20459;-81
2022/05/28 00:46:59;;;;;;;10.70;4.60;;;9.80;57.50;;;;;;5068403;28;20463;-82
2022/05/28 00:49:30;;;;;;;10.57;2.60;;;9.90;56.50;;;;;;5067095;28;20697;-80
2022/05/28 00:52:01;;;;;;;14.30;2.70;;;9.90;56.40;;;;;;5050027;28;20487;-81
2022/05/28 00:54:33;;;;;;;6.47;2.00;;;9.90;56.40;;;;;;5049940;28;20459;-81
2022/05/28 00:57:02;;;;;;;7.73;1.83;;;9.90;57.20;;;;;;5068087;28;20503;-82
2022/05/28 00:59:28;;;;;;;10.70;2.17;;;10.10;54.70;;;;;;5069702;28;20448;-82
2022/05/28 01:02:01;;;;;;;11.60;2.40;;;10.10;54.80;;;;;;5049934;28;20456;-81
2022/05/28 01:04:36;;;;;;;14.40;2.83;;;10.00;55.40;;;;;;5051167;28;20436;-81
2022/05/28 01:07:15;;;;;;;8.90;1.80;;;10.40;55.30;;;;;;5049739;28;20475;-82
2022/05/28 01:09:49;;;;;;;10.20;2.60;;;10.20;54.20;;;;;;5048798;28;20465;-82
2022/05/28 01:12:24;;;;;;;10.10;1.87;;;10.20;54.20;;;;;;5049503;28;20452;-81
2022/05/28 01:14:57;;;;;;;12.03;2.57;;;10.20;53.90;;;;;;5049737;28;20436;-81
2022/05/28 01:17:29;;;;;;;11.00;2.43;;;10.30;52.80;;;;;;5014905;28;1051825;-82
2022/05/28 01:20:04;;;;;;;7.20;1.77;;;10.30;52.80;;;;;;5049955;28;20455;-82
2022/05/28 01:22:44;;;;;;;7.93;2.00;;;10.50;53.80;;;;;;5051367;28;20456;-81
2022/05/28 01:25:21;;;;;;;8.03;1.77;;;10.40;53.20;;;;;;5049101;28;20447;-82
2022/05/28 01:27:52;;;;;;;12.10;2.00;;;10.40;52.60;;;;;;5030241;28;20444;-82
2022/05/28 01:30:20;;;;;;;7.00;2.53;;;10.40;52.90;;;;;;5029361;28;20466;-81
2022/05/28 01:32:51;;;;;;;10.87;3.53;;;10.50;52.40;;;;;;5053968;28;20447;-82
2022/05/28 01:35:19;;;;;;;8.67;2.40;;;10.50;53.30;;;;;;5069355;28;20475;-82
2022/05/28 01:37:47;;;;;;;8.80;1.80;;;10.50;53.50;;;;;;5030358;28;20464;-82
2022/05/28 01:40:16;;;;;;;14.00;2.90;;;10.50;52.40;;;;;;5058917;28;20869;-82
2022/05/28 01:42:45;;;;;;;13.40;2.93;;;10.40;52.90;;;;;;5069584;28;20455;-81
2022/05/28 01:45:15;;;;;;;7.00;2.40;;;10.50;53.00;;;;;;5054643;28;20463;-80
2022/05/28 01:47:43;;;;;;;5.97;2.13;;;10.30;54.00;;;;;;5049155;28;20495;-82
2022/05/28 01:50:13;;;;;;;10.03;2.17;;;10.40;55.40;;;;;;5052510;28;20467;-80
2022/05/28 01:52:42;;;;;;;15.33;3.80;;;10.20;55.80;;;;;;5059174;28;20805;-82
2022/05/28 01:55:11;;;;;;;7.93;2.37;;;10.40;55.80;;;;;;5054361;28;20457;-82
2022/05/28 01:57:38;;;;;;;6.50;1.80;;;10.10;55.90;;;;;;5069818;28;20455;-82
2022/05/28 02:00:06;;;;;;;9.50;3.00;;;10.20;54.70;;;;;;5065295;28;20452;-81
2022/05/28 02:02:35;;;;;;;12.93;2.17;;;10.20;55.20;;;;;;5066609;28;20451;-82
2022/05/28 02:05:02;;;;;;;16.03;2.60;;;10.30;55.10;;;;;;5068947;28;20449;-81
2022/05/28 02:07:29;;;;;;;11.10;2.50;;;10.50;54.10;;;;;;5069639;28;20455;-82
2022/05/28 02:10:00;;;;;;;7.67;2.60;;;10.60;53.90;;;;;;5068568;28;20955;-83
2022/05/28 02:12:30;;;;;;;12.30;2.47;;;10.50;53.00;;;;;;5070350;28;20448;-81
2022/05/28 02:15:16;;;;;;;9.70;2.83;;;10.40;53.40;;;;;;5053741;28;20447;-79
2022/05/28 02:17:49;;;;;;;7.87;2.17;;;10.60;53.00;;;;;;5069592;28;20442;-80
2022/05/28 02:20:24;;;;;;;9.80;2.60;;;10.70;53.20;;;;;;5067322;28;20435;-81
2022/05/28 02:22:56;;;;;;;60.77;56.87;;;10.70;52.80;;;;;;5050024;28;20830;-82
2022/05/28 02:25:30;;;;;;;8.47;2.33;;;10.80;52.00;;;;;;5050128;28;20464;-82
2022/05/28 02:27:58;;;;;;;8.63;2.37;;;10.90;51.20;;;;;;5033222;28;20607;-82
2022/05/28 02:30:25;;;;;;;10.23;2.00;;;11.00;50.90;;;;;;5063598;28;20477;-82
2022/05/28 02:33:01;;;;;;;6.30;2.30;;;11.00;50.50;;;;;;5057989;28;20509;-80
2022/05/28 02:35:28;;;;;;;11.63;2.43;;;11.10;47.90;;;;;;5054713;28;20460;-81
2022/05/28 02:37:55;;;;;;;9.53;2.90;;;11.20;47.40;;;;;;5050111;28;20452;-82
2022/05/28 02:40:22;;;;;;;7.80;2.53;;;11.20;47.70;;;;;;5051802;28;20443;-81
2022/05/28 02:42:49;;;;;;;6.03;2.27;;;11.30;49.00;;;;;;5065343;28;20894;-82
2022/05/28 02:45:17;;;;;;;10.07;2.50;;;11.10;47.90;;;;;;5060823;28;20984;-81
2022/05/28 02:47:45;;;;;;;7.10;2.90;;;11.10;49.10;;;;;;5049475;28;20449;-82
2022/05/28 02:50:13;;;;;;;7.70;2.70;;;11.00;49.40;;;;;;5049191;28;20519;-82
2022/05/28 02:52:40;;;;;;;8.67;2.43;;;11.00;51.00;;;;;;5049436;28;20458;-81
2022/05/28 02:55:07;;;;;;;9.03;2.73;;;11.00;50.80;;;;;;5049414;28;20448;-82
2022/05/28 02:57:35;;;;;;;11.60;3.00;;;10.80;52.00;;;;;;5049027;28;20450;-82
2022/05/28 03:00:01;;;;;;;8.90;2.90;;;10.70;52.50;;;;;;5048287;28;20448;-82
2022/05/28 03:02:28;;;;;;;12.20;3.30;;;10.60;52.80;;;;;;5048995;28;20449;-81
2022/05/28 03:04:55;;;;;;;10.03;2.77;;;10.50;53.80;;;;;;5049457;28;20452;-82
2022/05/28 03:07:23;;;;;;;9.73;2.43;;;10.50;54.40;;;;;;5056852;28;20456;-81
2022/05/28 03:09:50;;;;;;;16.13;2.87;;;10.50;55.30;;;;;;5067347;28;20472;-80
2022/05/28 03:12:17;;;;;;;11.63;3.67;;;10.40;56.50;;;;;;5053692;28;20487;-83
2022/05/28 03:14:44;;;;;;;7.80;2.63;;;10.40;57.50;;;;;;5049062;28;20458;-83
2022/05/28 03:17:11;;;;;;;7.97;3.80;;;10.30;58.20;;;;;;5047727;28;20472;-82
2022/05/28 03:19:37;;;;;;;9.67;3.30;;;10.40;59.00;;;;;;5048622;28;20461;-81
2022/05/28 03:22:04;;;;;;;12.80;3.50;;;10.20;59.80;;;;;;5046576;28;20455;-83
2022/05/28 03:24:32;;;;;;;9.00;3.60;;;10.10;60.70;;;;;;5048334;28;20458;-82
2022/05/28 03:26:59;;;;;;;7.03;2.80;;;10.10;61.10;;;;;;5034931;28;20474;-85
2022/05/28 03:29:27;;;;;;;9.00;3.40;;;10.10;62.60;;;;;;5063662;28;20448;-84
2022/05/28 03:31:54;;;;;;;9.40;2.93;;;10.00;63.00;;;;;;5021413;28;20480;-82
2022/05/28 03:34:20;;;;;;;15.77;3.60;;;10.10;63.50;;;;;;5029169;28;21023;-82
2022/05/28 03:36:47;;;;;;;10.23;3.00;;;10.00;64.40;;;;;;5047084;28;20476;-83
2022/05/28 03:39:14;;;;;;;8.90;3.53;;;10.00;65.20;;;;;;5046585;28;20459;-82
2022/05/28 03:41:42;;;;;;;8.67;3.07;;;9.90;66.30;;;;;;5064390;28;20428;-82
2022/05/28 03:44:11;;;;;;;5.40;2.80;;;9.90;66.30;;;;;;5058323;28;20453;-82
2022/05/28 03:46:38;;;;;;;4.90;2.00;;;10.00;65.10;;;;;;5055830;28;20464;-83
2022/05/28 03:49:07;;;;;;;12.83;2.63;;;10.00;66.20;;;;;;5074496;28;20449;-82
2022/05/28 03:51:34;;;;;;;9.80;3.63;;;9.90;67.10;;;;;;5072646;28;20479;-81
2022/05/28 03:54:02;;;;;;;8.60;3.27;;;9.90;66.70;;;;;;5060647;28;20516;-82
2022/05/28 03:56:34;;;;;;;13.13;3.97;;;9.80;68.20;;;;;;5052905;28;20476;-83
2022/05/28 03:59:02;;;;;;;7.77;3.40;;;9.90;67.70;;;;;;5060887;28;20443;-82
2022/05/28 04:01:29;;;;;;;9.97;3.50;;;9.90;68.50;;;;;;5071459;28;20446;-83
2022/05/28 04:03:56;;;;;;;14.70;6.90;;;9.90;69.40;;;;;;5068398;28;20452;-83
2022/05/28 04:06:23;;;;;;;10.40;3.70;;;9.90;70.00;;;;;;5052422;28;20475;-83
2022/05/28 04:08:50;;;;;;;12.27;4.07;;;10.00;70.70;;;;;;5050704;28;20452;-80
2022/05/28 04:11:17;;;;;;;22.10;4.70;;;10.00;71.80;;;;;;5051921;28;20479;-82
2022/05/28 04:13:44;;;;;;;12.17;4.00;;;9.90;73.40;;;;;;5052475;28;20475;-83
2022/05/28 04:16:12;;;;;;;10.83;3.97;;;9.90;75.40;;;;;;5051046;28;20577;-81
2022/05/28 04:18:40;;;;;;;9.10;4.63;;;9.90;75.90;;;;;;5050613;28;20450;-82
2022/05/28 04:21:07;;;;;;;13.17;4.23;;;9.90;77.20;;;;;;5049968;28;20459;-83
2022/05/28 04:23:34;;;;;;;7.70;4.33;;;10.10;74.80;;;;;;5051330;28;20440;-83
2022/05/28 04:26:01;;;;;;;11.70;4.60;;;10.10;75.80;;;;;;5051875;28;20472;-82
2022/05/28 04:28:27;;;;;;;9.17;4.20;;;10.20;75.50;;;;;;5050873;28;20897;-83
2022/05/28 04:30:54;;;;;;;9.40;4.20;;;10.20;75.40;;;;;;5051407;28;20490;-81
2022/05/28 04:33:22;;;;;;;11.93;3.80;;;10.30;73.90;;;;;;5052706;28;20827;-83
2022/05/28 04:35:49;;;;;;;8.67;4.10;;;10.30;73.60;;;;;;5052900;28;20471;-83
2022/05/28 04:38:16;;;;;;;12.13;4.13;;;10.30;74.70;;;;;;5070922;28;20459;-81
2022/05/28 04:40:43;;;;;;;9.00;3.30;;;10.30;74.40;;;;;;5073443;28;20457;-82
2022/05/28 04:43:10;;;;;;;8.03;3.50;;;10.30;74.00;;;;;;5053774;28;20452;-82
2022/05/28 04:45:37;;;;;;;10.83;3.23;;;10.40;73.50;;;;;;5053266;28;20468;-82
2022/05/28 04:48:04;;;;;;;24.73;6.00;;;10.50;76.10;;;;;;5069079;28;20838;-83
2022/05/28 04:50:32;;;;;;;18.40;7.80;;;10.40;77.30;;;;;;5058166;28;20473;-82
2022/05/28 04:52:59;;;;;;;21.33;16.17;;;10.60;77.50;;;;;;5053488;28;20454;-82
2022/05/28 04:55:28;;;;;;;25.80;21.30;;;10.50;78.40;;;;;;5063792;28;20476;-82
2022/05/28 04:57:57;;;;;;;29.10;23.00;;;10.60;77.50;;;;;;5072880;28;20475;-82
2022/05/28 05:00:26;;;;;;;39.83;22.80;;;10.70;77.60;;;;;;5050547;28;20472;-82
2022/05/28 05:02:53;;;;;;;25.80;15.00;;;10.70;77.60;;;;;;5059048;28;20452;-82
2022/05/28 05:05:20;;;;;;;19.20;10.60;;;10.70;77.60;;;;;;5070111;28;20475;-82
2022/05/28 05:07:48;;;;;;;20.67;8.27;;;10.80;77.40;;;;;;5051353;28;20484;-82
2022/05/28 05:10:15;;;;;;;18.37;9.83;;;10.80;75.70;;;;;;5057186;28;20503;-81
2022/05/28 05:12:42;;;;;;;16.47;8.17;;;10.90;77.30;;;;;;5069740;28;20453;-82
2022/05/28 05:15:09;;;;;;;18.57;6.30;;;11.00;75.90;;;;;;5070880;28;20511;-81
2022/05/28 05:17:36;;;;;;;20.20;8.10;;;11.00;75.30;;;;;;5070361;22;20494;-84
2022/05/28 05:20:03;;;;;;;10.00;4.00;;;11.20;78.00;;;;;;5045932;28;20480;-83
2022/05/28 05:22:30;;;;;;;9.83;4.43;;;11.40;75.00;;;;;;5063389;28;20534;-84
2022/05/28 05:24:59;;;;;;;6.37;2.77;;;11.60;70.50;;;;;;5061264;28;20451;-85
2022/05/28 05:27:26;;;;;;;14.40;3.80;;;12.00;70.80;;;;;;5057933;28;20540;-84
2022/05/28 05:29:57;;;;;;;10.27;4.20;;;12.20;69.90;;;;;;5045223;28;20530;-85
2022/05/28 05:32:35;;;;;;;10.80;3.17;;;12.40;67.30;;;;;;5060142;28;20495;-85
2022/05/28 05:35:02;;;;;;;10.43;3.50;;;12.60;64.80;;;;;;5045741;28;20539;-85
2022/05/28 05:37:32;;;;;;;10.77;3.40;;;12.60;63.30;;;;;;5058487;28;20482;-85
2022/05/28 05:40:01;;;;;;;12.43;4.40;;;12.80;62.50;;;;;;5050248;28;20498;-85
2022/05/28 05:42:31;;;;;;;12.00;3.50;;;12.90;60.10;;;;;;5063485;28;20518;-85
2022/05/28 05:45:01;;;;;;;12.00;3.83;;;13.00;60.90;;;;;;5054036;28;20535;-85
2022/05/28 05:47:28;;;;;;;12.40;3.10;;;13.20;60.80;;;;;;5055582;28;20465;-85
2022/05/28 05:49:55;;;;;;;16.40;3.83;;;13.40;58.70;;;;;;5046167;28;20477;-84
2022/05/28 05:52:28;;;;;;;8.37;3.23;;;13.40;57.90;;;;;;5049223;28;20504;-86
2022/05/28 05:54:55;;;;;;;10.47;2.90;;;13.40;57.90;;;;;;5051548;28;20495;-86
2022/05/28 05:57:31;;;;;;;13.00;3.60;;;13.60;56.70;;;;;;5053381;28;20532;-86
2022/05/28 05:59:58;;;;;;;14.67;3.37;;;13.60;56.40;;;;;;5055961;28;20512;-87
2022/05/28 06:02:25;;;;;;;13.27;3.17;;;13.70;56.00;;;;;;5054889;28;20475;-85
2022/05/28 06:04:54;;;;;;;10.77;3.00;;;13.80;55.10;;;;;;5062531;28;20445;-86
2022/05/28 06:07:22;;;;;;;10.10;3.37;;;14.00;55.60;;;;;;5042423;28;20468;-86
2022/05/28 06:09:49;;;;;;;12.10;2.90;;;14.00;55.30;;;;;;5052309;28;20446;-85
2022/05/28 06:12:16;;;;;;;10.63;3.20;;;13.90;52.20;;;;;;5055277;28;20498;-86
2022/05/28 06:14:50;;;;;;;8.23;3.20;;;14.20;56.30;;;;;;5059176;28;20477;-86
2022/05/28 06:17:16;;;;;;;8.50;2.47;;;14.30;52.50;;;;;;5062633;28;20482;-86
2022/05/28 06:19:45;;;;;;;13.80;3.70;;;14.30;52.30;;;;;;5055552;28;20724;-86
2022/05/28 06:22:16;;;;;;;7.47;2.20;;;14.60;54.10;;;;;;5058897;28;20956;-87
2022/05/28 06:24:43;;;;;;;17.13;3.07;;;14.70;53.10;;;;;;5053826;28;20481;-87
2022/05/28 06:27:10;;;;;;;8.57;2.67;;;14.80;52.40;;;;;;5050971;28;20503;-86
2022/05/28 06:29:37;;;;;;;5.70;2.10;;;14.60;52.50;;;;;;5056460;28;20472;-86
2022/05/28 06:32:06;;;;;;;10.33;2.60;;;14.60;50.60;;;;;;5056101;28;20475;-87
2022/05/28 06:34:33;;;;;;;8.50;2.43;;;14.70;53.90;;;;;;5050569;28;20825;-85
2022/05/28 06:37:00;;;;;;;10.93;2.27;;;14.50;47.50;;;;;;5043907;28;20478;-86
2022/05/28 06:39:27;;;;;;;13.60;2.53;;;14.40;48.00;;;;;;5054579;28;20521;-85
2022/05/28 06:41:53;;;;;;;9.50;2.07;;;14.30;47.90;;;;;;5054868;28;20464;-85
2022/05/28 06:44:20;;;;;;;8.57;3.20;;;14.40;45.60;;;;;;5043678;28;20548;-87
2022/05/28 06:46:47;;;;;;;5.70;1.50;;;14.20;47.80;;;;;;5055875;28;20911;-84
2022/05/28 06:49:15;;;;;;;11.83;2.10;;;14.00;47.60;;;;;;5060479;28;20451;-82
2022/05/28 06:51:42;;;;;;;6.03;1.77;;;14.00;48.70;;;;;;5044801;28;21008;-85
2022/05/28 06:54:08;;;;;;;8.63;2.37;;;14.00;47.60;;;;;;5039187;28;20450;-84
2022/05/28 06:56:35;;;;;;;6.83;2.50;;;14.10;46.20;;;;;;5045214;28;20484;-84
2022/05/28 06:59:02;;;;;;;7.60;2.03;;;14.10;47.70;;;;;;5036553;28;20453;-85
2022/05/28 07:01:29;;;;;;;8.77;2.00;;;14.30;47.90;;;;;;5045471;28;20544;-84
2022/05/28 07:03:56;;;;;;;11.10;1.53;;;14.70;44.90;;;;;;5057956;28;20449;-85
2022/05/28 07:06:27;;;;;;;8.60;1.60;;;15.20;42.40;;;;;;5050896;28;20988;-85
2022/05/28 07:08:54;;;;;;;4.97;1.37;;;15.90;40.90;;;;;;5038603;28;20455;-85
2022/05/28 07:11:20;;;;;;;11.03;1.70;;;15.90;37.00;;;;;;5044726;28;20471;-84
2022/05/28 07:13:47;;;;;;;10.10;2.33;;;15.30;38.00;;;;;;5058781;28;20447;-84
2022/05/28 07:16:14;;;;;;;7.50;1.80;;;15.60;38.70;;;;;;5053574;28;20556;-81
2022/05/28 07:18:41;;;;;;;10.27;1.50;;;16.10;36.90;;;;;;5041066;28;20461;-83
2022/05/28 07:21:09;;;;;;;5.90;1.67;;;16.10;32.10;;;;;;5038011;28;20457;-82
2022/05/28 07:23:37;;;;;;;9.17;1.60;;;16.40;32.00;;;;;;5039169;28;20454;-84
2022/05/28 07:26:06;;;;;;;5.77;1.53;;;16.60;29.40;;;;;;5046734;28;21048;-84
2022/05/28 07:28:36;;;;;;;7.60;1.63;;;16.00;32.40;;;;;;5043710;28;20459;-83
2022/05/28 07:31:05;;;;;;;12.00;2.10;;;16.20;29.90;;;;;;5049121;28;20446;-83
2022/05/28 07:33:34;;;;;;;10.27;1.83;;;15.60;31.20;;;;;;5045483;28;20454;-83
2022/05/28 07:36:02;;;;;;;5.00;1.60;;;15.10;34.50;;;;;;5048897;28;21019;-83
2022/05/28 07:38:29;;;;;;;6.00;1.30;;;15.30;35.10;;;;;;5061802;28;20584;-83
2022/05/28 07:41:02;;;;;;;14.20;1.80;;;15.70;32.90;;;;;;5057337;28;20448;-83
2022/05/28 07:43:29;;;;;;;5.90;1.80;;;15.90;31.00;;;;;;5042155;28;20481;-83
2022/05/28 07:45:56;;;;;;;7.53;1.63;;;16.40;31.90;;;;;;5047684;28;20472;-83
2022/05/28 07:48:22;;;;;;;6.13;1.53;;;15.90;29.00;;;;;;5064345;28;20468;-82
2022/05/28 07:50:49;;;;;;;4.00;1.20;;;15.40;28.70;;;;;;5052731;28;20460;-83
2022/05/28 07:53:16;;;;;;;6.07;1.50;;;14.90;30.50;;;;;;5047310;28;20531;-83
2022/05/28 07:55:43;;;;;;;7.60;2.10;;;14.70;30.40;;;;;;5057553;28;20455;-83
2022/05/28 07:58:14;;;;;;;6.50;1.50;;;15.20;30.80;;;;;;5065462;28;20459;-82
2022/05/28 08:00:42;;;;;;;6.07;1.13;;;15.30;28.10;;;;;;5054926;28;20470;-83
2022/05/28 08:03:10;;;;;;;5.50;1.57;;;15.50;29.90;;;;;;5045620;28;20448;-83
2022/05/28 08:05:38;;;;;;;7.37;1.70;;;15.70;27.50;;;;;;5055756;28;20814;-83
2022/05/28 08:08:07;;;;;;;6.10;0.90;;;16.10;28.00;;;;;;5065763;28;20455;-82
2022/05/28 08:10:33;;;;;;;6.10;1.40;;;16.30;25.50;;;;;;5057082;28;20461;-83
2022/05/28 08:13:01;;;;;;;5.40;1.47;;;16.00;24.10;;;;;;5045742;28;20476;-83
2022/05/28 08:15:30;;;;;;;5.07;1.10;;;15.80;25.10;;;;;;5053604;28;20449;-83
2022/05/28 08:17:57;;;;;;;8.33;1.37;;;15.50;26.40;;;;;;5067038;28;20461;-83
2022/05/28 08:23:08;;;;;;;7.30;1.73;;;15.50;27.50;;;;;;5060078;28;20455;-83
2022/05/28 08:23:10;;;;;;;7.30;1.30;;;15.30;25.90;;;;;;5046329;28;20471;-83
2022/05/28 08:25:39;;;;;;;4.00;1.03;;;15.30;27.10;;;;;;5055280;28;20471;-83
2022/05/28 08:28:06;;;;;;;3.80;0.80;;;14.90;27.50;;;;;;5068883;28;20500;-82
2022/05/28 08:30:34;;;;;;;5.20;1.10;;;15.30;28.60;;;;;;5061905;28;20451;-83
2022/05/28 08:33:01;;;;;;;8.50;1.50;;;15.50;28.30;;;;;;5044142;28;20855;-83
2022/05/28 08:35:28;;;;;;;5.80;1.13;;;15.90;29.30;;;;;;5049751;28;20451;-83
2022/05/28 08:37:54;;;;;;;6.20;1.20;;;16.20;24.30;;;;;;5065939;28;20479;-84
2022/05/28 08:40:23;;;;;;;4.83;0.80;;;16.50;24.50;;;;;;5057663;28;20452;-84
2022/05/28 08:42:50;;;;;;;6.73;1.00;;;16.70;17.50;;;;;;5047083;28;20451;-83
2022/05/28 08:45:18;;;;;;;4.70;1.03;;;16.80;17.90;;;;;;5048078;28;20453;-84
2022/05/28 08:47:49;;;;;;;6.10;1.20;;;16.80;17.60;;;;;;5060767;28;20472;-84
2022/05/28 08:50:16;;;;;;;3.90;1.00;;;16.80;17.40;;;;;;5053631;28;20958;-84
2022/05/28 08:52:48;;;;;;;6.33;1.37;;;17.00;15.10;;;;;;5039985;28;20476;-83
2022/05/28 08:55:18;;;;;;;4.07;1.00;;;16.80;17.20;;;;;;5044896;28;20452;-83
2022/05/28 08:57:53;;;;;;;5.20;0.90;;;17.20;15.10;;;;;;5060600;28;20469;-83
2022/05/28 09:00:33;;;;;;;7.80;1.17;;;17.50;21.10;;;;;;5054583;28;20453;-83
2022/05/28 09:03:07;;;;;;;4.00;1.17;;;17.60;14.00;;;;;;5040636;28;20452;-84
2022/05/28 09:05:43;;;;;;;4.73;1.23;;;17.70;13.70;;;;;;5045612;28;20450;-84
2022/05/28 09:08:12;;;;;;;6.73;1.00;;;17.40;13.90;;;;;;5056240;28;20455;-83
2022/05/28 09:10:45;;;;;;;6.27;1.33;;;17.80;12.80;;;;;;5041615;28;20479;-84
2022/05/28 09:13:27;;;;;;;4.50;1.20;;;18.20;12.30;;;;;;5043619;28;20477;-84
2022/05/28 09:15:56;;;;;;;7.20;1.20;;;18.50;11.10;;;;;;5060491;28;20483;-84
2022/05/28 09:18:30;;;;;;;4.80;1.20;;;18.20;9.80;;;;;;5055889;28;20449;-83
2022/05/28 09:20:57;;;;;;;5.40;1.47;;;18.00;13.00;;;;;;5039583;28;20453;-83
2022/05/28 09:23:23;;;;;;;4.30;1.00;;;17.20;10.00;;;;;;5042368;28;20457;-84
2022/05/28 09:25:50;;;;;;;5.53;1.17;;;17.50;8.70;;;;;;5053439;28;20456;-83
2022/05/28 09:28:30;;;;;;;5.20;1.17;;;17.50;10.40;;;;;;5043520;28;20454;-83
2022/05/28 09:31:07;;;;;;;4.67;1.03;;;18.10;10.90;;;;;;5019709;28;20450;-83
2022/05/28 09:34:06;;;;;;;4.93;0.93;;;18.50;7.90;;;;;;5019894;28;20490;-84
2022/05/28 09:36:41;;;;;;;10.13;1.27;;;18.90;6.50;;;;;;5035967;28;20467;-85
2022/05/28 09:39:18;;;;;;;5.53;0.80;;;18.30;5.70;;;;;;5042888;28;20477;-84
2022/05/28 09:41:54;;;;;;;5.70;1.10;;;17.80;7.80;;;;;;5051201;28;20455;-84
2022/05/28 09:44:42;;;;;;;4.90;1.03;;;17.20;7.20;;;;;;5019394;28;20459;-84
2022/05/28 09:47:11;;;;;;;8.53;1.30;;;17.40;11.30;;;;;;5032673;28;20469;-84
2022/05/28 09:49:49;;;;;;;3.70;0.80;;;17.20;7.20;;;;;;5043137;28;20448;-84
2022/05/28 09:52:23;;;;;;;8.07;1.30;;;16.90;8.90;;;;;;5048200;28;20477;-83
2022/05/28 09:54:49;;;;;;;4.10;1.10;;;16.60;9.80;;;;;;5058317;28;20805;-83
2022/05/28 09:57:23;;;;;;;10.90;0.80;;;16.70;10.80;;;;;;5044449;28;20465;-84
2022/05/28 09:59:55;;;;;;;6.18;1.17;;;18.00;10.80;;;;;;5051287;28;20463;-84
2022/05/28 10:02:25;;;;;;;7.93;1.23;;;17.60;4.10;;;;;;5040381;28;20224;-84
2022/05/28 10:04:55;;;;;;;4.17;0.90;;;17.50;5.20;;;;;;5051560;28;20526;-83
2022/05/28 10:07:31;;;;;;;4.10;1.07;;;17.00;7.60;;;;;;5059740;28;20478;-84
2022/05/28 10:09:58;;;;;;;5.50;1.30;;;16.80;9.10;;;;;;5045122;28;20612;-84
2022/05/28 10:12:26;;;;;;;6.33;1.40;;;16.70;11.60;;;;;;5039703;28;20566;-83
2022/05/28 10:15:04;;;;;;;6.10;1.17;;;16.70;9.90;;;;;;5052714;28;20464;-84
2022/05/28 10:17:32;;;;;;;4.90;1.13;;;16.30;9.50;;;;;;5054601;28;20475;-84
2022/05/28 10:20:02;;;;;;;4.40;1.00;;;16.90;12.00;;;;;;5042693;28;20457;-84
2022/05/28 10:22:30;;;;;;;6.80;1.50;;;17.80;6.20;;;;;;5051336;28;20802;-84
2022/05/28 10:25:00;;;;;;;8.50;1.50;;;18.50;1.00;;;;;;5066402;28;20452;-84
2022/05/28 10:27:35;;;;;;;4.10;0.90;;;19.10;1.00;;;;;;5060212;28;20480;-84
2022/05/28 10:30:07;;;;;;;4.17;1.00;;;19.20;1.00;;;;;;5040840;28;20543;-85
2022/05/28 10:32:37;;;;;;;5.40;0.90;;;18.90;2.50;;;;;;5043251;28;20467;-84
2022/05/28 10:35:12;;;;;;;5.57;1.07;;;18.00;1.00;;;;;;5059110;28;20455;-84
2022/05/28 10:37:39;;;;;;;4.63;0.97;;;18.40;1.00;;;;;;5048287;28;20477;-84
2022/05/28 10:40:12;;;;;;;7.20;1.37;;;18.90;1.00;;;;;;5039554;28;20455;-84
2022/05/28 10:42:39;;;;;;;4.27;0.77;;;19.60;1.00;;;;;;5048380;28;20837;-84
2022/05/28 10:45:08;;;;;;;5.60;1.30;;;19.90;1.00;;;;;;5059501;28;20453;-84
2022/05/28 10:47:59;;;;;;;4.10;0.90;;;19.30;1.00;;;;;;5050836;28;20473;-84
2022/05/28 10:50:37;;;;;;;5.60;1.30;;;19.60;1.00;;;;;;5038930;28;20463;-84
2022/05/28 10:53:14;;;;;;;5.40;0.93;;;19.80;1.00;;;;;;5051611;28;20976;-84
2022/05/28 10:55:51;;;;;;;7.00;1.40;;;19.60;1.40;;;;;;5059389;28;20444;-84
2022/05/28 10:58:29;;;;;;;6.03;1.20;;;20.20;1.00;;;;;;5045154;28;20458;-84
2022/05/28 11:01:02;;;;;;;5.60;0.80;;;20.90;1.00;;;;;;5040691;28;20447;-84
2022/05/28 11:03:46;;;;;;;5.60;1.20;;;20.90;1.00;;;;;;5041106;28;20458;-84
2022/05/28 11:06:58;;;;;;;5.07;1.00;;;20.60;1.00;;;;;;5039337;28;20485;-84
2022/05/28 11:09:37;;;;;;;6.90;1.03;;;21.10;1.00;;;;;;5019068;28;20538;-85
2022/05/28 11:12:17;;;;;;;4.20;0.97;;;21.30;1.00;;;;;;5022533;28;20460;-84
2022/05/28 11:15:22;;;;;;;5.30;1.30;;;21.20;1.00;;;;;;5059944;28;20458;-85
2022/05/28 11:18:04;;;;;;;4.60;0.90;;;21.60;1.00;;;;;;5076219;22;20490;-80
2022/05/28 11:20:41;;;;;;;5.20;1.30;;;21.60;1.00;;;;;;5059783;28;20449;-80
2022/05/28 11:23:27;;;;;;;6.00;1.00;;;20.60;1.00;;;;;;5059883;28;21038;-79
2022/05/28 11:26:05;;;;;;;4.90;1.00;;;19.40;1.00;;;;;;5058707;28;20926;-79
2022/05/28 11:28:51;;;;;;;5.63;0.87;;;18.80;1.00;;;;;;5061479;28;20463;-80
2022/05/28 11:31:28;;;;;;;4.53;0.90;;;18.40;1.00;;;;;;5064227;28;20440;-80
2022/05/28 11:33:58;;;;;;;6.17;1.00;;;17.90;1.00;;;;;;5023370;28;20476;-80
2022/05/28 11:36:28;;;;;;;7.53;1.50;;;17.90;1.00;;;;;;5023325;28;20976;-81
2022/05/28 11:39:01;;;;;;;6.70;1.13;;;17.70;1.00;;;;;;5062182;28;20459;-80
2022/05/28 11:41:34;;;;;;;4.20;1.10;;;17.70;1.00;;;;;;5058049;28;20441;-80
2022/05/28 11:44:10;;;;;;;6.73;1.30;;;18.20;1.00;;;;;;5042967;28;20450;-81
2022/05/28 11:46:44;;;;;;;6.60;1.33;;;19.20;1.00;;;;;;5056686;28;20500;-80
2022/05/28 11:52:13;;;;;;;6.17;1.17;;;21.40;1.00;;;;;;5036768;28;21035;-81
2022/05/28 11:54:47;;;;;;;9.30;1.33;;;19.90;1.00;;;;;;5062085;28;20848;-85
2022/05/28 11:57:21;;;;;;;8.43;1.13;;;19.10;1.00;;;;;;5054022;28;20468;-83
2022/05/28 11:59:49;;;;;;;6.00;1.23;;;19.40;1.00;;;;;;5043218;28;20450;-83
2022/05/28 12:02:22;;;;;;;5.00;1.30;;;20.20;1.00;;;;;;5045419;28;20447;-83
2022/05/28 12:04:49;;;;;;;8.00;1.20;;;21.20;1.00;;;;;;5044952;28;20445;-83
2022/05/28 12:07:33;;;;;;;13.90;1.87;;;22.10;1.00;;;;;;5044460;28;20906;-84
2022/05/28 12:10:03;;;;;;;4.63;1.13;;;21.30;1.00;;;;;;5052129;28;20963;-84
2022/05/28 12:12:36;;;;;;;5.70;1.27;;;20.20;1.00;;;;;;5059571;28;20476;-83
2022/05/28 12:15:08;;;;;;;5.40;1.20;;;19.40;1.00;;;;;;5063294;28;20465;-82
2022/05/28 12:17:36;;;;;;;4.10;1.10;;;18.50;1.00;;;;;;5057578;28;20483;-82
2022/05/28 12:20:10;;;;;;;6.30;1.10;;;17.60;1.00;;;;;;5050639;28;20478;-82
2022/05/28 12:22:39;;;;;;;7.70;1.53;;;17.10;2.00;;;;;;5060791;28;20865;-84
2022/05/28 12:25:32;;;;;;;5.80;1.13;;;16.80;1.00;;;;;;5070588;28;20449;-83
2022/05/28 12:28:11;;;;;;;8.73;2.40;;;17.80;1.00;;;;;;5071366;28;20469;-82
2022/05/28 12:30:54;;;;;;;4.13;1.00;;;19.40;1.00;;;;;;5050048;28;20448;-83
2022/05/28 12:33:27;;;;;;;9.00;1.00;;;20.30;1.00;;;;;;5052091;28;20567;-83
2022/05/28 12:36:12;;;;;;;13.90;1.93;;;21.40;1.00;;;;;;5059758;28;20470;-85
2022/05/28 12:38:53;;;;;;;5.70;1.30;;;21.50;1.00;;;;;;5049208;28;20455;-82
2022/05/28 12:41:25;;;;;;;5.23;1.17;;;22.50;1.00;;;;;;5068735;28;20444;-84
2022/05/28 12:44:05;;;;;;;8.80;1.30;;;22.70;1.00;;;;;;5070564;28;20449;-82
2022/05/28 12:46:54;;;;;;;6.40;2.10;;;23.40;1.00;;;;;;5062586;28;20998;-81
2022/05/28 12:49:27;;;;;;;4.83;1.10;;;21.90;1.00;;;;;;5045260;28;20474;-82
2022/05/28 12:52:23;;;;;;;5.77;1.20;;;20.90;1.00;;;;;;5047525;28;20519;-82
2022/05/28 12:55:01;;;;;;;5.33;0.80;;;19.70;1.00;;;;;;5051169;28;20490;-82
2022/05/28 12:57:34;;;;;;;4.00;0.97;;;19.10;1.00;;;;;;5062495;28;20473;-83
2022/05/28 13:00:05;;;;;;;5.17;1.20;;;19.00;1.00;;;;;;5066195;28;20491;-84
2022/05/28 13:02:37;;;;;;;4.93;0.93;;;20.20;1.00;;;;;;5056039;28;20505;-83
2022/05/28 13:05:11;;;;;;;7.20;1.30;;;21.10;1.00;;;;;;5056599;28;20451;-83
2022/05/28 13:07:44;;;;;;;4.27;1.17;;;22.40;1.00;;;;;;5059380;28;20474;-83